createdAt,value
2023-03-02T00:04:10.274Z,89.79
2023-03-02T00:09:13.013Z,87.89
2023-03-02T00:14:17.291Z,86.73
2023-03-02T00:19:20.527Z,86.47
2023-03-02T00:24:23.534Z,86.43
2023-03-02T00:29:28.292Z,85.99
2023-03-02T00:34:32.302Z,85.88
2023-03-02T00:39:35.356Z,86.18
2023-03-02T00:44:39.994Z,86.79
2023-03-02T00:49:45.459Z,86.78
2023-03-02T00:54:48.282Z,88.97
2023-03-02T00:59:53.536Z,90.46
2023-03-02T01:05:14.835Z,90.55
2023-03-02T01:10:17.993Z,91.01
2023-03-02T01:15:22.288Z,92.71
2023-03-02T01:20:25.065Z,93.17
2023-03-02T01:25:28.433Z,93.62
2023-03-02T01:30:32.534Z,93.71
2023-03-02T01:35:35.453Z,92.86
2023-03-02T01:40:38.385Z,93.59
2023-03-02T01:45:53.389Z,94.74
2023-03-02T01:51:08.335Z,96.18
2023-03-02T01:56:11.862Z,97.21
2023-03-02T02:01:17.379Z,98.64
2023-03-02T02:06:24.853Z,100.00
2023-03-02T02:11:28.412Z,100.00
2023-03-02T02:16:34.565Z,100.00
2023-03-02T02:21:37.787Z,100.00
2023-03-02T02:26:46.344Z,100.00
2023-03-02T02:31:54.467Z,100.00
2023-03-02T02:37:04.951Z,100.00
2023-03-02T02:42:16.005Z,100.00
2023-03-02T02:47:22.077Z,100.00
2023-03-02T02:52:27.125Z,100.00
2023-03-02T02:57:32.123Z,100.00
2023-03-02T03:02:40.932Z,100.00
2023-03-02T03:07:44.110Z,100.00
2023-03-02T03:12:48.682Z,100.00
2023-03-02T03:17:56.224Z,100.00
2023-03-02T03:23:00.790Z,100.00
2023-03-02T03:28:07.937Z,100.00
2023-03-02T03:33:11.983Z,100.00
2023-03-02T03:38:15.790Z,100.00
2023-03-02T03:43:20.767Z,100.00
2023-03-02T03:48:28.279Z,100.00
2023-03-02T03:53:31.260Z,100.00
2023-03-02T03:58:35.884Z,100.00
2023-03-02T04:03:39.509Z,100.00
2023-03-02T04:08:42.533Z,100.00
2023-03-02T04:13:48.881Z,100.00
2023-03-02T04:18:52.254Z,100.00
2023-03-02T04:23:55.615Z,100.00
2023-03-02T04:29:00.793Z,100.00
2023-03-02T04:34:05.037Z,100.00
2023-03-02T04:39:09.456Z,100.00
2023-03-02T04:44:14.696Z,100.00
2023-03-02T04:49:19.843Z,100.00
2023-03-02T04:54:25.349Z,100.00
2023-03-02T04:59:30.058Z,100.00
2023-03-02T05:04:32.962Z,100.00
2023-03-02T05:09:35.958Z,100.00
2023-03-02T05:14:40.870Z,100.00
2023-03-02T05:19:43.734Z,100.00
2023-03-02T05:24:46.616Z,100.00
2023-03-02T05:29:50.809Z,100.00
2023-03-02T05:34:53.677Z,100.00
2023-03-02T05:39:56.542Z,100.00
2023-03-02T05:45:01.017Z,100.00
2023-03-02T05:50:04.894Z,100.00
2023-03-02T05:55:10.081Z,100.00
2023-03-02T06:00:16.137Z,100.00
2023-03-02T06:05:22.073Z,100.00
2023-03-02T06:10:25.904Z,100.00
2023-03-02T06:15:30.104Z,100.00
2023-03-02T06:20:32.872Z,100.00
2023-03-02T06:25:42.020Z,100.00
2023-03-02T06:30:47.026Z,100.00
2023-03-02T06:35:50.557Z,100.00
2023-03-02T06:40:56.076Z,100.00
2023-03-02T06:46:02.341Z,100.00
2023-03-02T06:51:06.146Z,100.00
2023-03-02T06:56:10.066Z,100.00
2023-03-02T07:01:14.461Z,100.00
2023-03-02T07:06:18.401Z,100.00
2023-03-02T07:11:24.229Z,100.00
2023-03-02T07:16:29.057Z,100.00
2023-03-02T07:21:32.217Z,100.00
2023-03-02T07:26:37.457Z,100.00
2023-03-02T07:31:44.275Z,100.00
2023-03-02T07:36:49.860Z,99.37
2023-03-02T07:41:53.095Z,97.61
2023-03-02T07:46:59.249Z,89.97
2023-03-02T07:52:02.436Z,88.18
2023-03-02T07:57:05.344Z,86.05
2023-03-02T08:02:15.419Z,82.42
2023-03-02T08:07:18.295Z,81.51
2023-03-02T08:12:22.198Z,80.55
2023-03-02T08:17:27.149Z,75.43
2023-03-02T08:22:31.383Z,77.34
2023-03-02T08:27:34.672Z,72.88
2023-03-02T08:32:39.199Z,72.34
2023-03-02T08:37:42.126Z,68.00
2023-03-02T08:42:44.853Z,68.78
2023-03-02T08:47:49.085Z,66.98
2023-03-02T08:52:52.820Z,64.74
2023-03-02T08:57:55.732Z,64.86
2023-03-02T09:03:00.110Z,63.07
2023-03-02T09:08:03.195Z,62.95
2023-03-02T09:13:08.536Z,61.11
2023-03-02T09:18:12.952Z,60.88
2023-03-02T09:23:15.845Z,62.32
2023-03-02T09:28:19.017Z,61.42
2023-03-02T09:33:23.202Z,61.05
2023-03-02T09:38:27.478Z,60.53
2023-03-02T09:43:44.623Z,60.01
2023-03-02T09:48:58.717Z,58.40
2023-03-02T09:54:08.758Z,59.18
2023-03-02T09:59:22.371Z,58.94
2023-03-02T10:04:29.297Z,57.34
2023-03-02T10:09:32.247Z,56.95
2023-03-02T10:14:42.034Z,56.46
2023-03-02T10:19:52.298Z,56.58
2023-03-02T10:25:08.015Z,55.36
2023-03-02T10:30:22.019Z,53.97
2023-03-02T10:35:31.306Z,54.77
2023-03-02T10:41:03.145Z,53.50
2023-03-02T10:46:08.770Z,53.06
2023-03-02T10:51:23.059Z,52.34
2023-03-02T10:56:26.041Z,52.50
2023-03-02T11:01:28.917Z,53.37
2023-03-02T11:06:33.573Z,51.15
2023-03-02T11:11:37.732Z,51.48
2023-03-02T11:16:40.879Z,50.89
2023-03-02T11:21:51.120Z,49.94
2023-03-02T11:26:58.216Z,50.91
2023-03-02T11:32:10.184Z,49.56
2023-03-02T11:37:19.562Z,49.52
2023-03-02T11:42:26.340Z,48.75
2023-03-02T11:47:33.433Z,49.12
2023-03-02T11:52:42.847Z,47.77
2023-03-02T11:57:49.861Z,48.15
2023-03-02T12:03:04.947Z,46.52
2023-03-02T12:08:25.283Z,47.07
2023-03-02T12:13:34.231Z,45.68
2023-03-02T12:18:47.528Z,45.66
2023-03-02T12:24:04.039Z,44.10
2023-03-02T12:29:23.552Z,43.58
2023-03-02T12:34:38.599Z,44.18
2023-03-02T12:40:13.321Z,42.26
2023-03-02T12:45:31.337Z,41.34
2023-03-02T12:50:39.535Z,40.35
2023-03-02T12:55:45.697Z,43.62
2023-03-02T13:00:53.055Z,38.51
2023-03-02T13:06:02.833Z,40.54
2023-03-02T13:11:07.508Z,41.80
2023-03-02T13:16:22.598Z,41.14
2023-03-02T13:21:30.866Z,42.73
2023-03-02T13:26:39.819Z,43.48
2023-03-02T13:31:44.425Z,43.65
2023-03-02T13:36:47.407Z,44.38
2023-03-02T13:41:56.950Z,45.71
2023-03-02T13:47:01.498Z,45.75
2023-03-02T13:52:09.184Z,46.62
2023-03-02T13:57:17.856Z,46.45
2023-03-02T14:02:25.439Z,47.15
2023-03-02T14:07:28.305Z,46.93
2023-03-02T14:12:33.942Z,46.62
2023-03-02T14:17:38.928Z,47.23
2023-03-02T14:22:42.429Z,47.60
2023-03-02T14:27:48.059Z,48.15
2023-03-02T14:32:51.113Z,47.72
2023-03-02T14:37:56.196Z,47.57
2023-03-02T14:43:00.801Z,48.59
2023-03-02T14:48:03.746Z,48.22
2023-03-02T14:53:17.476Z,48.19
2023-03-02T14:58:32.436Z,47.74
2023-03-02T15:03:35.335Z,47.95
2023-03-02T15:08:38.431Z,48.29
2023-03-02T15:13:45.366Z,46.61
2023-03-02T15:18:49.520Z,45.63
2023-03-02T15:23:52.520Z,46.42
2023-03-02T15:28:58.118Z,48.03
2023-03-02T15:34:00.997Z,47.69
2023-03-02T15:39:04.428Z,47.42
2023-03-02T15:44:09.329Z,47.32
2023-03-02T15:49:12.211Z,47.25
2023-03-02T15:54:15.020Z,47.37
2023-03-02T15:59:19.631Z,47.34
2023-03-02T16:04:26.133Z,47.84
2023-03-02T16:09:30.942Z,47.25
2023-03-02T16:14:36.155Z,47.80
2023-03-02T16:19:42.457Z,47.47
2023-03-02T16:24:45.477Z,47.71
2023-03-02T16:29:49.680Z,47.37
2023-03-02T16:34:55.246Z,47.36
2023-03-02T16:39:58.225Z,46.99
2023-03-02T16:45:02.431Z,46.90
2023-03-02T16:50:07.090Z,47.00
2023-03-02T16:55:16.769Z,47.37
2023-03-02T17:00:22.732Z,47.79
2023-03-02T17:05:27.030Z,47.85
2023-03-02T17:10:30.384Z,47.88
2023-03-02T17:15:36.472Z,48.88
2023-03-02T17:20:39.801Z,48.93
2023-03-02T17:25:42.533Z,48.31
2023-03-02T17:30:46.956Z,47.78
2023-03-02T17:35:50.160Z,48.10
2023-03-02T17:40:53.606Z,49.31
2023-03-02T17:45:57.931Z,51.64
2023-03-02T17:51:01.344Z,53.22
2023-03-02T17:56:04.251Z,53.04
2023-03-02T18:48:02.347Z,62.85
2023-03-02T18:53:05.116Z,64.10
2023-03-02T18:58:10.836Z,67.75
2023-03-02T19:03:16.005Z,71.05
2023-03-02T19:08:20.618Z,71.69
2023-03-02T19:13:24.389Z,74.98
2023-03-02T19:18:30.941Z,77.88
2023-03-02T19:23:34.392Z,79.41
2023-03-02T19:28:38.458Z,79.47
2023-03-02T19:33:45.125Z,80.97
2023-03-02T19:38:48.462Z,82.18
2023-03-02T19:43:52.698Z,83.07
2023-03-02T19:48:56.962Z,83.71
2023-03-02T19:54:00.663Z,86.13
2023-03-02T19:59:03.644Z,89.13
2023-03-02T20:04:08.055Z,87.06
2023-03-02T20:09:13.048Z,87.20
2023-03-02T20:14:31.237Z,88.96
2023-03-02T20:19:37.151Z,88.27
2023-03-02T20:24:40.356Z,89.51
2023-03-02T20:29:44.196Z,87.14
2023-03-02T20:34:48.620Z,85.40
2023-03-02T20:39:51.972Z,85.88
2023-03-02T20:44:56.346Z,87.24
2023-03-02T20:50:00.877Z,90.86
2023-03-02T20:55:04.143Z,92.77
2023-03-02T21:00:11.878Z,93.12
2023-03-02T21:05:17.130Z,92.68
2023-03-02T21:10:25.742Z,93.74
2023-03-02T21:15:29.514Z,93.20
2023-03-02T21:20:36.711Z,96.94
2023-03-02T21:25:42.112Z,96.29
2023-03-02T21:30:45.150Z,97.25
2023-03-02T21:35:49.295Z,99.88
2023-03-02T21:40:52.122Z,100.00
2023-03-02T21:45:55.395Z,100.00
2023-03-02T21:50:59.892Z,100.00
2023-03-02T21:56:02.726Z,100.00
2023-03-02T22:01:05.973Z,100.00
2023-03-02T22:06:15.825Z,100.00
2023-03-02T22:11:22.653Z,100.00
2023-03-02T22:16:28.064Z,100.00
2023-03-02T22:21:34.682Z,100.00
2023-03-02T22:26:40.250Z,100.00
2023-03-02T22:31:47.511Z,100.00
2023-03-02T22:36:51.767Z,100.00
2023-03-02T22:41:57.768Z,100.00
2023-03-02T22:47:01.160Z,100.00
2023-03-02T22:52:14.113Z,100.00
2023-03-02T22:57:32.101Z,100.00
2023-03-02T23:02:38.116Z,100.00
2023-03-02T23:07:42.341Z,100.00
2023-03-02T23:12:45.621Z,100.00
2023-03-02T23:17:48.508Z,100.00
2023-03-02T23:22:52.632Z,100.00
2023-03-02T23:27:55.637Z,100.00
2023-03-02T23:32:58.479Z,100.00
2023-03-02T23:38:02.866Z,100.00
2023-03-02T23:43:05.830Z,100.00
2023-03-02T23:48:08.875Z,100.00
2023-03-02T23:53:13.464Z,100.00
2023-03-02T23:58:16.440Z,100.00
